Time;durP1;ratioP1;P1;durP2;ratioP2;P2;SDS_P1;SDS_P2;PMS_P1;PMS_P2;Temp;Humidity;BMP_temperature;BMP_pressure;BME280_temperature;BME280_humidity;BME280_pressure;Samples;Min_cycle;Max_cycle;Signal;HPM_P1;HPM_P2
2021/03/08 00:01:25;;;;;;;31.47;15.93;;;2.20;97.10;;;;;;5010249;28;20215;-53
2021/03/08 00:03:50;;;;;;;32.20;16.30;;;2.20;97.20;;;;;;5002639;28;20204;-53
2021/03/08 00:06:16;;;;;;;34.30;16.00;;;2.10;97.20;;;;;;5008818;28;20195;-54
2021/03/08 00:08:41;;;;;;;31.93;14.90;;;2.10;97.20;;;;;;5006952;28;20210;-52
2021/03/08 00:11:07;;;;;;;31.53;16.03;;;2.10;97.50;;;;;;5018311;28;20203;-56
2021/03/08 00:13:33;;;;;;;29.93;15.73;;;2.10;97.40;;;;;;5001736;28;20208;-52
2021/03/08 00:15:59;;;;;;;39.00;14.63;;;2.10;97.30;;;;;;5010697;28;20599;-52
2021/03/08 00:18:25;;;;;;;32.50;18.40;;;2.10;97.30;;;;;;5009341;28;20560;-53
2021/03/08 00:20:52;;;;;;;30.57;15.77;;;2.10;97.10;;;;;;5010137;28;20217;-54
2021/03/08 00:23:18;;;;;;;34.03;16.40;;;2.10;97.20;;;;;;5013375;28;20451;-56
2021/03/08 00:25:44;;;;;;;32.40;16.47;;;2.00;97.10;;;;;;5007394;28;21021;-54
2021/03/08 00:28:10;;;;;;;32.43;17.03;;;2.00;97.00;;;;;;5004146;28;20780;-54
2021/03/08 00:30:36;;;;;;;31.57;16.03;;;2.00;97.00;;;;;;5009432;28;20438;-55
2021/03/08 00:33:02;;;;;;;32.27;15.63;;;1.90;96.90;;;;;;5009340;28;20226;-54
2021/03/08 00:35:27;;;;;;;31.20;15.77;;;1.90;96.80;;;;;;5009684;28;20488;-54
2021/03/08 00:37:53;;;;;;;29.80;15.17;;;1.80;96.80;;;;;;5006309;28;20459;-51
2021/03/08 00:40:21;;;;;;;27.33;15.73;;;1.80;96.80;;;;;;5008877;28;20551;-54
2021/03/08 00:42:48;;;;;;;30.00;16.30;;;1.70;96.70;;;;;;5007126;28;20673;-52
2021/03/08 00:45:22;;;;;;;30.60;15.67;;;1.70;96.80;;;;;;5005707;28;20490;-55
2021/03/08 00:47:48;;;;;;;33.37;16.63;;;1.60;96.80;;;;;;5008150;28;20479;-53
2021/03/08 00:50:16;;;;;;;25.90;13.97;;;1.50;96.70;;;;;;5005895;28;20450;-54
2021/03/08 00:52:43;;;;;;;28.40;15.47;;;1.50;96.70;;;;;;5009442;28;20445;-53
2021/03/08 00:55:10;;;;;;;29.33;14.63;;;1.40;96.70;;;;;;5001164;28;20475;-53
2021/03/08 00:57:36;;;;;;;28.73;16.50;;;1.40;96.80;;;;;;5008415;28;20457;-51
2021/03/08 01:00:03;;;;;;;34.27;16.40;;;1.30;97.00;;;;;;5010244;28;20472;-53
2021/03/08 01:02:28;;;;;;;28.13;14.83;;;1.30;97.20;;;;;;5006560;28;20182;-53
2021/03/08 01:04:54;;;;;;;27.50;15.60;;;1.30;97.20;;;;;;5007381;28;20790;-51
2021/03/08 01:07:19;;;;;;;34.47;16.30;;;1.20;97.20;;;;;;5008252;28;20182;-55
2021/03/08 01:09:45;;;;;;;31.63;15.97;;;1.20;97.40;;;;;;5006632;28;20184;-50
2021/03/08 01:12:12;;;;;;;30.33;15.33;;;1.10;97.30;;;;;;5008594;28;20187;-52
2021/03/08 01:14:38;;;;;;;28.60;14.07;;;1.10;97.40;;;;;;5007817;28;20194;-53
2021/03/08 01:17:04;;;;;;;25.40;13.63;;;1.10;97.20;;;;;;5007945;28;20466;-54
2021/03/08 01:19:31;;;;;;;24.03;13.00;;;1.00;97.00;;;;;;5006080;28;20971;-53
2021/03/08 01:21:57;;;;;;;31.23;15.03;;;1.00;96.80;;;;;;5006309;28;20973;-55
2021/03/08 01:24:22;;;;;;;26.83;13.20;;;1.00;96.70;;;;;;5005889;28;20483;-50
2021/03/08 01:26:48;;;;;;;33.00;15.17;;;0.90;96.60;;;;;;5006337;28;20287;-52
2021/03/08 01:29:17;;;;;;;27.33;13.90;;;0.90;96.40;;;;;;5001278;28;20706;-52
2021/03/08 01:31:43;;;;;;;28.43;14.37;;;0.90;96.20;;;;;;5015959;28;20428;-53
2021/03/08 01:34:08;;;;;;;27.27;14.60;;;0.90;96.20;;;;;;5005879;28;20830;-54
2021/03/08 01:36:37;;;;;;;26.97;13.97;;;0.80;96.30;;;;;;5008902;28;20180;-56
2021/03/08 01:39:04;;;;;;;24.83;12.93;;;0.80;96.30;;;;;;5003922;28;20800;-53
2021/03/08 01:41:31;;;;;;;27.20;14.37;;;0.80;96.40;;;;;;5007861;28;20504;-52
2021/03/08 01:43:56;;;;;;;27.37;13.97;;;0.80;96.50;;;;;;5006586;28;20519;-52
2021/03/08 01:46:22;;;;;;;27.60;14.47;;;0.70;96.40;;;;;;5007244;28;20451;-52
2021/03/08 01:48:48;;;;;;;41.10;15.90;;;0.70;96.60;;;;;;5006304;28;20281;-52
2021/03/08 01:51:13;;;;;;;24.97;13.97;;;0.70;96.70;;;;;;5009130;28;20488;-55
2021/03/08 01:53:41;;;;;;;26.63;14.63;;;0.60;96.80;;;;;;5008039;28;20634;-57
2021/03/08 01:56:07;;;;;;;26.60;13.73;;;0.60;96.80;;;;;;5006108;28;20189;-53
2021/03/08 01:58:33;;;;;;;27.90;14.13;;;0.60;96.80;;;;;;5001407;28;21027;-56
2021/03/08 02:00:59;;;;;;;25.87;14.63;;;0.50;96.70;;;;;;5005126;28;20534;-53
2021/03/08 02:03:25;;;;;;;26.60;12.80;;;0.50;96.60;;;;;;5007929;28;20206;-51
2021/03/08 02:05:51;;;;;;;23.43;12.70;;;0.50;96.40;;;;;;5004501;28;20511;-52
2021/03/08 02:08:19;;;;;;;27.43;13.03;;;0.50;96.30;;;;;;5006867;28;20216;-52
2021/03/08 02:10:46;;;;;;;25.97;12.60;;;0.40;96.10;;;;;;5007352;28;20199;-53
2021/03/08 02:13:23;;;;;;;22.93;12.30;;;0.40;95.90;;;;;;5006325;28;20465;-50
2021/03/08 02:15:55;;;;;;;26.30;13.97;;;0.40;95.90;;;;;;5009344;28;20431;-53
2021/03/08 02:18:29;;;;;;;28.40;14.60;;;0.40;96.10;;;;;;5004581;28;20466;-53
2021/03/08 02:20:55;;;;;;;30.13;14.87;;;0.30;96.20;;;;;;5007296;28;20424;-53
2021/03/08 02:23:47;;;;;;;30.30;13.63;;;0.30;96.30;;;;;;5011160;28;20961;-52
2021/03/08 02:26:22;;;;;;;27.00;14.20;;;0.30;96.50;;;;;;5002736;28;20194;-54
2021/03/08 02:29:19;;;;;;;27.47;14.07;;;0.30;96.30;;;;;;5006058;28;21095;-51
2021/03/08 02:31:49;;;;;;;26.40;13.07;;;0.20;96.30;;;;;;5001562;28;20465;-53
2021/03/08 02:34:22;;;;;;;30.30;14.90;;;0.20;96.30;;;;;;5006090;28;20452;-52
2021/03/08 02:36:52;;;;;;;25.23;13.40;;;0.20;96.30;;;;;;5001163;28;20608;-51
2021/03/08 02:39:26;;;;;;;27.73;14.47;;;0.20;96.30;;;;;;5004773;28;21101;-54
2021/03/08 02:41:55;;;;;;;28.87;14.27;;;0.20;96.20;;;;;;5008240;28;20504;-53
2021/03/08 02:44:28;;;;;;;27.53;12.83;;;0.10;96.20;;;;;;5005940;28;20791;-52
2021/03/08 02:46:56;;;;;;;37.83;14.70;;;0.10;96.50;;;;;;5007917;28;20467;-54
2021/03/08 02:49:26;;;;;;;24.23;14.10;;;0.10;96.30;;;;;;5004435;28;20465;-50
2021/03/08 02:52:10;;;;;;;28.77;14.17;;;0.00;96.20;;;;;;5010365;28;20432;-49
2021/03/08 02:54:40;;;;;;;33.70;14.20;;;0.00;96.20;;;;;;5005034;28;20556;-49
2021/03/08 02:57:09;;;;;;;24.20;13.27;;;0.00;96.30;;;;;;5005277;28;20464;-52
2021/03/08 02:59:42;;;;;;;23.73;13.20;;;0.00;96.40;;;;;;5005534;28;20523;-49
2021/03/08 03:02:08;;;;;;;29.37;14.03;;;-0.10;96.40;;;;;;5001942;28;20778;-50
2021/03/08 03:04:37;;;;;;;28.00;13.77;;;-0.10;96.30;;;;;;4999781;28;20945;-50
2021/03/08 03:07:04;;;;;;;26.40;14.80;;;-0.10;96.40;;;;;;5001198;28;20782;-53
2021/03/08 03:09:33;;;;;;;25.80;13.23;;;-0.20;96.70;;;;;;5003568;28;20437;-52
2021/03/08 03:12:00;;;;;;;25.60;13.23;;;-0.20;96.50;;;;;;5007461;28;20467;-52
2021/03/08 03:14:28;;;;;;;32.33;13.70;;;-0.30;96.50;;;;;;5007507;28;20435;-52
2021/03/08 03:17:00;;;;;;;28.17;14.10;;;-0.30;96.50;;;;;;5006957;28;20459;-53
2021/03/08 03:19:27;;;;;;;34.17;15.13;;;-0.30;96.60;;;;;;5008093;28;20543;-52
2021/03/08 03:21:57;;;;;;;29.30;14.37;;;-0.40;96.70;;;;;;5001591;28;20429;-52
2021/03/08 03:24:24;;;;;;;28.37;14.20;;;-0.40;96.80;;;;;;5006201;28;20555;-52
2021/03/08 03:26:50;;;;;;;28.73;14.43;;;-0.40;97.10;;;;;;5008277;28;20457;-55
2021/03/08 03:29:16;;;;;;;31.27;15.10;;;-0.40;97.60;;;;;;5010777;28;20843;-52
2021/03/08 03:31:42;;;;;;;30.20;13.67;;;-0.40;97.20;;;;;;5002606;28;20500;-52
2021/03/08 03:34:09;;;;;;;30.63;14.27;;;-0.40;97.30;;;;;;5009602;28;20220;-54
2021/03/08 03:36:39;;;;;;;25.03;13.00;;;-0.40;97.30;;;;;;5007998;28;20439;-53
2021/03/08 03:39:07;;;;;;;25.03;13.33;;;-0.40;97.30;;;;;;5011388;28;20494;-52
2021/03/08 03:41:33;;;;;;;24.00;14.30;;;-0.40;97.10;;;;;;5005390;28;20869;-52
2021/03/08 03:44:00;;;;;;;30.13;14.87;;;-0.50;97.00;;;;;;5009452;28;20448;-53
2021/03/08 03:46:26;;;;;;;31.60;13.67;;;-0.50;96.90;;;;;;5007131;28;20738;-52
2021/03/08 03:48:52;;;;;;;24.87;12.60;;;-0.50;96.80;;;;;;5007302;28;20440;-52
2021/03/08 03:51:19;;;;;;;31.13;13.60;;;-0.50;96.70;;;;;;5000771;28;20445;-52
2021/03/08 03:53:44;;;;;;;28.47;13.57;;;-0.60;96.70;;;;;;5006290;28;20494;-53
2021/03/08 03:56:13;;;;;;;26.90;13.10;;;-0.60;96.70;;;;;;5005935;28;20464;-51
2021/03/08 03:58:50;;;;;;;30.10;15.10;;;-0.60;96.70;;;;;;5008990;28;20221;-52
2021/03/08 04:01:24;;;;;;;29.43;14.70;;;-0.60;96.70;;;;;;5010585;28;20430;-55
2021/03/08 04:04:08;;;;;;;32.40;14.03;;;-0.70;96.70;;;;;;5009197;28;20456;-52
2021/03/08 04:06:42;;;;;;;28.50;13.60;;;-0.70;96.80;;;;;;5010703;28;20429;-53
2021/03/08 04:09:10;;;;;;;26.90;14.33;;;-0.80;96.90;;;;;;5006616;28;20519;-53
2021/03/08 04:11:39;;;;;;;30.10;13.80;;;-0.80;96.90;;;;;;5010080;28;20440;-52
2021/03/08 04:14:06;;;;;;;28.17;15.23;;;-0.80;97.00;;;;;;5009371;28;20457;-52
2021/03/08 04:16:35;;;;;;;26.53;14.63;;;-0.80;97.10;;;;;;5007330;28;20448;-52
2021/03/08 04:19:02;;;;;;;33.90;15.20;;;-0.90;97.10;;;;;;5007133;28;20547;-51
2021/03/08 04:21:33;;;;;;;28.10;15.00;;;-0.90;97.20;;;;;;5009239;28;20487;-54
2021/03/08 04:24:01;;;;;;;29.70;15.07;;;-0.90;97.20;;;;;;5008768;28;20520;-52
2021/03/08 04:26:27;;;;;;;25.07;13.33;;;-1.00;97.00;;;;;;5007911;28;20478;-53
2021/03/08 04:28:56;;;;;;;29.20;13.90;;;-1.00;97.00;;;;;;5011360;28;20920;-51
2021/03/08 04:31:22;;;;;;;28.77;14.47;;;-1.10;97.20;;;;;;5009997;28;20475;-54
2021/03/08 04:33:49;;;;;;;27.63;15.20;;;-1.10;97.30;;;;;;5025077;22;20527;-65
2021/03/08 04:36:15;;;;;;;28.23;13.53;;;-1.10;97.40;;;;;;5004333;28;20432;-65
2021/03/08 04:38:42;;;;;;;29.93;14.57;;;-1.10;97.50;;;;;;5009224;28;20468;-65
2021/03/08 04:41:10;;;;;;;30.10;15.40;;;-1.10;97.60;;;;;;5004008;28;20432;-64
2021/03/08 04:43:37;;;;;;;31.67;14.80;;;-1.10;97.70;;;;;;5006195;28;20531;-64
2021/03/08 04:46:03;;;;;;;26.73;13.57;;;-1.20;97.70;;;;;;5009791;28;20720;-65
2021/03/08 04:48:29;;;;;;;36.60;15.10;;;-1.20;97.90;;;;;;5009279;28;20446;-66
2021/03/08 04:50:56;;;;;;;27.50;13.50;;;-1.20;98.00;;;;;;5002748;28;20487;-66
2021/03/08 04:53:22;;;;;;;28.90;13.73;;;-1.10;98.00;;;;;;5008027;28;20254;-65
2021/03/08 04:55:49;;;;;;;30.47;15.10;;;-1.10;97.90;;;;;;5010191;28;20429;-65
2021/03/08 04:58:15;;;;;;;25.50;12.70;;;-1.10;97.80;;;;;;5010353;28;20189;-64
2021/03/08 05:00:41;;;;;;;26.57;14.00;;;-1.10;97.70;;;;;;5010130;28;21069;-64
2021/03/08 05:03:06;;;;;;;28.43;14.80;;;-1.20;97.50;;;;;;5007750;28;20458;-65
2021/03/08 05:05:33;;;;;;;23.30;13.30;;;-1.20;97.30;;;;;;5009850;28;20229;-64
2021/03/08 05:08:04;;;;;;;35.80;14.43;;;-1.20;97.00;;;;;;5010115;28;20179;-64
2021/03/08 05:10:33;;;;;;;25.47;13.43;;;-1.20;96.80;;;;;;5007105;28;20479;-64
2021/03/08 05:13:00;;;;;;;26.20;13.00;;;-1.30;96.80;;;;;;5009286;28;20436;-64
2021/03/08 05:15:27;;;;;;;27.50;13.90;;;-1.30;96.80;;;;;;5009933;28;20415;-64
2021/03/08 05:17:56;;;;;;;25.93;14.40;;;-1.30;96.90;;;;;;5009179;28;20427;-64
2021/03/08 05:20:23;;;;;;;30.00;13.67;;;-1.40;96.80;;;;;;5009114;28;20962;-64
2021/03/08 05:22:50;;;;;;;28.97;13.90;;;-1.40;96.70;;;;;;5005566;28;20438;-65
2021/03/08 05:25:18;;;;;;;30.67;14.00;;;-1.40;97.10;;;;;;5006191;28;20432;-64
2021/03/08 05:27:45;;;;;;;25.13;12.70;;;-1.50;96.80;;;;;;5004024;28;20428;-63
2021/03/08 05:30:18;;;;;;;31.53;14.10;;;-1.50;96.90;;;;;;5013299;28;20440;-64
2021/03/08 05:33:02;;;;;;;31.20;14.67;;;-1.50;96.90;;;;;;5011205;28;20939;-63
2021/03/08 05:35:29;;;;;;;30.97;14.83;;;-1.50;97.00;;;;;;5009506;28;20444;-64
2021/03/08 05:37:56;;;;;;;32.77;14.77;;;-1.50;97.00;;;;;;5008170;28;20516;-64
2021/03/08 05:40:38;;;;;;;28.47;14.27;;;-1.60;96.90;;;;;;5006645;28;20554;-65
2021/03/08 05:43:07;;;;;;;29.93;14.57;;;-1.60;96.80;;;;;;4996222;28;20460;-63
2021/03/08 05:45:35;;;;;;;28.90;15.37;;;-1.60;96.70;;;;;;5011086;28;20441;-63
2021/03/08 05:48:16;;;;;;;31.77;15.17;;;-1.60;96.70;;;;;;5006494;28;20439;-64
2021/03/08 05:50:53;;;;;;;28.60;14.50;;;-1.70;96.80;;;;;;5007264;28;20984;-64
2021/03/08 05:53:37;;;;;;;32.47;16.80;;;-1.70;96.80;;;;;;5000378;28;20894;-64
2021/03/08 05:56:40;;;;;;;30.73;14.83;;;-1.70;97.00;;;;;;5004155;28;20779;-64
2021/03/08 05:59:19;;;;;;;31.30;15.03;;;-1.80;97.20;;;;;;4995395;28;20441;-62
2021/03/08 06:02:22;;;;;;;32.10;16.17;;;-1.80;97.30;;;;;;5000744;28;20488;-62
2021/03/08 06:05:10;;;;;;;32.73;15.00;;;-1.80;97.40;;;;;;5003406;28;20488;-63
2021/03/08 06:07:58;;;;;;;39.03;15.87;;;-1.80;97.50;;;;;;5003165;28;20398;-65
2021/03/08 06:10:25;;;;;;;31.27;14.40;;;-1.80;97.60;;;;;;5007601;28;20428;-63
2021/03/08 06:12:56;;;;;;;36.70;14.20;;;-1.70;97.80;;;;;;5006053;28;20454;-63
2021/03/08 06:15:24;;;;;;;32.00;14.90;;;-1.70;98.00;;;;;;5005771;28;20432;-64
2021/03/08 06:17:53;;;;;;;30.57;14.70;;;-1.70;98.20;;;;;;5004019;28;20464;-63
2021/03/08 06:20:19;;;;;;;31.80;15.13;;;-1.60;98.20;;;;;;4989479;28;20416;-64
2021/03/08 06:22:46;;;;;;;25.50;14.07;;;-1.60;98.00;;;;;;4993201;28;20438;-63
2021/03/08 06:25:13;;;;;;;27.27;14.90;;;-1.60;97.90;;;;;;5007916;28;20436;-62
2021/03/08 06:27:42;;;;;;;32.50;14.30;;;-1.60;97.80;;;;;;5002367;28;20444;-63
2021/03/08 06:30:08;;;;;;;33.87;15.73;;;-1.60;97.70;;;;;;5000347;28;20433;-63
2021/03/08 06:32:34;;;;;;;30.03;14.73;;;-1.60;97.70;;;;;;5001324;28;20448;-65
2021/03/08 06:35:00;;;;;;;31.17;15.83;;;-1.60;97.60;;;;;;4997896;28;20434;-65
2021/03/08 06:37:29;;;;;;;28.17;14.80;;;-1.60;97.50;;;;;;5004004;28;20449;-65
2021/03/08 06:39:55;;;;;;;31.10;15.63;;;-1.60;97.60;;;;;;4995170;28;20471;-66
2021/03/08 06:42:22;;;;;;;34.67;16.30;;;-1.60;97.60;;;;;;4992364;28;20888;-64
2021/03/08 06:44:48;;;;;;;34.97;14.87;;;-1.50;97.70;;;;;;5003524;28;20665;-65
2021/03/08 06:47:15;;;;;;;33.10;16.00;;;-1.50;97.70;;;;;;5003009;28;20924;-64
2021/03/08 06:49:41;;;;;;;31.77;15.20;;;-1.40;97.60;;;;;;5002833;28;20440;-64
2021/03/08 06:52:11;;;;;;;31.40;15.03;;;-1.40;97.40;;;;;;4998667;28;20445;-65
2021/03/08 06:54:42;;;;;;;35.63;16.17;;;-1.30;97.40;;;;;;4999161;28;20199;-65
2021/03/08 06:57:30;;;;;;;27.97;15.17;;;-1.30;97.30;;;;;;4999605;28;20460;-64
2021/03/08 07:00:01;;;;;;;32.43;15.60;;;-1.20;97.30;;;;;;5004980;28;20547;-65
2021/03/08 07:02:42;;;;;;;32.07;16.83;;;-1.10;97.30;;;;;;4999584;28;20438;-65
2021/03/08 07:05:25;;;;;;;37.20;17.43;;;-1.10;97.10;;;;;;5006018;28;20945;-65
2021/03/08 07:07:53;;;;;;;41.93;18.60;;;-1.00;97.00;;;;;;5000712;28;20397;-66
2021/03/08 07:10:34;;;;;;;36.43;17.23;;;-1.00;96.90;;;;;;4999533;28;21145;-66
2021/03/08 07:13:01;;;;;;;39.03;18.30;;;-0.90;97.00;;;;;;5000676;28;20451;-65
2021/03/08 07:15:27;;;;;;;37.67;16.03;;;-0.80;96.90;;;;;;5005711;28;20527;-65
2021/03/08 07:17:53;;;;;;;32.90;16.70;;;-0.80;96.70;;;;;;5011465;28;20973;-65
2021/03/08 07:20:19;;;;;;;32.30;16.33;;;-0.70;96.80;;;;;;5011154;28;20464;-64
2021/03/08 07:22:53;;;;;;;37.07;17.07;;;-0.60;96.90;;;;;;5009035;28;20454;-65
2021/03/08 07:25:28;;;;;;;30.70;15.43;;;-0.60;97.10;;;;;;5009339;28;20468;-67
2021/03/08 07:27:59;;;;;;;29.97;15.60;;;-0.50;97.00;;;;;;5004543;28;20533;-64
2021/03/08 07:30:36;;;;;;;34.10;16.73;;;-0.40;97.10;;;;;;5001061;28;20440;-63
2021/03/08 07:33:03;;;;;;;35.57;16.77;;;-0.30;97.20;;;;;;5003806;28;20483;-64
2021/03/08 07:35:43;;;;;;;35.73;17.43;;;-0.20;97.10;;;;;;5007853;28;20451;-64
2021/03/08 07:38:13;;;;;;;38.63;17.57;;;-0.10;97.00;;;;;;5004205;28;20889;-66
2021/03/08 07:40:42;;;;;;;41.30;19.03;;;0.00;96.80;;;;;;5007931;28;20806;-64
2021/03/08 07:43:22;;;;;;;34.87;18.00;;;0.10;96.70;;;;;;5010992;28;20844;-63
2021/03/08 07:45:48;;;;;;;38.30;18.37;;;0.10;96.70;;;;;;5012418;28;20856;-63
2021/03/08 07:48:18;;;;;;;38.10;17.63;;;0.20;96.40;;;;;;5000907;28;20478;-64
2021/03/08 07:50:49;;;;;;;42.27;18.10;;;0.30;96.20;;;;;;5021838;28;20198;-63
2021/03/08 07:53:31;;;;;;;35.97;16.27;;;0.30;95.90;;;;;;5011081;28;20476;-64
2021/03/08 07:56:01;;;;;;;28.73;16.63;;;0.40;95.80;;;;;;5000224;28;20449;-63
2021/03/08 07:58:29;;;;;;;35.03;16.80;;;0.50;95.70;;;;;;4990988;28;20544;-63
2021/03/08 08:00:56;;;;;;;32.20;16.13;;;0.50;95.00;;;;;;5000978;28;20507;-63
2021/03/08 08:03:22;;;;;;;31.47;16.57;;;0.50;95.20;;;;;;5002163;28;21001;-65
2021/03/08 08:05:59;;;;;;;32.80;16.20;;;0.60;94.90;;;;;;5001865;28;20484;-64
2021/03/08 08:08:26;;;;;;;34.30;18.13;;;0.70;94.80;;;;;;5005388;28;20452;-63
2021/03/08 08:10:54;;;;;;;41.47;18.93;;;0.80;95.00;;;;;;5005905;28;22064;-63
2021/03/08 08:13:27;;;;;;;40.80;18.40;;;0.90;94.60;;;;;;5003181;28;21023;-63
2021/03/08 08:15:54;;;;;;;35.93;17.60;;;0.90;94.50;;;;;;5001910;28;20456;-63
2021/03/08 08:18:21;;;;;;;30.03;17.67;;;1.00;93.80;;;;;;5006670;28;20921;-63
2021/03/08 08:20:51;;;;;;;44.13;18.87;;;1.10;93.50;;;;;;5006023;28;20697;-63
2021/03/08 08:23:19;;;;;;;41.30;20.10;;;1.20;92.80;;;;;;5008284;28;20575;-64
2021/03/08 08:25:46;;;;;;;34.23;18.57;;;1.30;92.80;;;;;;5000140;28;20429;-64
2021/03/08 08:28:16;;;;;;;44.13;19.93;;;1.40;92.70;;;;;;4996054;28;20460;-63
2021/03/08 08:30:42;;;;;;;35.63;19.30;;;1.50;92.60;;;;;;5003324;28;20826;-64
2021/03/08 08:33:07;;;;;;;40.83;19.83;;;1.60;92.30;;;;;;4996668;28;20464;-66
2021/03/08 08:35:34;;;;;;;38.80;18.73;;;1.70;92.30;;;;;;5000474;28;20262;-64
2021/03/08 08:38:14;;;;;;;40.93;18.97;;;1.90;91.90;;;;;;5002002;28;20686;-65
2021/03/08 08:40:43;;;;;;;42.67;19.40;;;2.00;91.90;;;;;;5003032;28;20446;-63
2021/03/08 08:43:15;;;;;;;35.60;19.40;;;2.10;91.60;;;;;;4996781;28;20474;-64
2021/03/08 08:45:42;;;;;;;30.63;17.30;;;2.20;91.70;;;;;;4995764;28;20871;-64
2021/03/08 08:48:08;;;;;;;36.13;17.67;;;2.40;91.20;;;;;;5003729;28;20833;-64
2021/03/08 08:50:51;;;;;;;33.10;16.23;;;2.50;90.20;;;;;;5004755;28;20514;-63
2021/03/08 08:53:42;;;;;;;25.13;14.37;;;2.60;88.70;;;;;;5018274;28;21325;-64
2021/03/08 08:56:08;;;;;;;27.53;14.70;;;2.70;84.00;;;;;;4997995;28;20485;-63
2021/03/08 08:58:52;;;;;;;24.67;13.60;;;2.80;81.00;;;;;;5003587;28;20457;-63
2021/03/08 09:04:00;;;;;;;23.10;11.93;;;3.10;76.00;;;;;;5001509;28;20871;-64
2021/03/08 09:06:48;;;;;;;18.57;11.17;;;3.20;72.10;;;;;;5003817;28;21036;-65
2021/03/08 09:09:24;;;;;;;22.37;12.53;;;3.40;69.70;;;;;;5002809;28;20434;-64
2021/03/08 09:12:00;;;;;;;19.10;10.87;;;3.50;65.70;;;;;;5002189;28;20430;-64
2021/03/08 09:14:40;;;;;;;24.43;10.47;;;3.70;64.20;;;;;;5000597;28;20504;-64
2021/03/08 09:17:22;;;;;;;19.33;10.03;;;3.80;61.90;;;;;;5004122;28;20948;-63
2021/03/08 09:20:11;;;;;;;16.73;10.33;;;4.00;61.20;;;;;;5003562;28;20467;-63
2021/03/08 09:22:47;;;;;;;18.10;9.73;;;4.10;58.30;;;;;;5006834;28;20508;-65
2021/03/08 09:25:18;;;;;;;12.90;8.47;;;4.30;56.00;;;;;;5008056;28;21239;-65
2021/03/08 09:27:49;;;;;;;10.13;7.17;;;4.40;52.20;;;;;;4996476;28;20439;-65
2021/03/08 09:30:21;;;;;;;13.90;8.97;;;4.50;50.30;;;;;;4998052;28;20530;-65
2021/03/08 09:33:02;;;;;;;13.37;7.57;;;4.70;49.20;;;;;;4994032;28;20951;-65
2021/03/08 09:35:35;;;;;;;21.23;8.40;;;4.80;48.60;;;;;;5000046;28;20457;-65
2021/03/08 09:38:04;;;;;;;11.33;7.33;;;4.90;47.50;;;;;;5000827;28;20565;-64
2021/03/08 09:40:33;;;;;;;14.13;7.53;;;5.10;46.60;;;;;;5001376;28;20467;-64
2021/03/08 09:42:59;;;;;;;15.03;8.27;;;5.20;46.10;;;;;;5003456;28;20455;-64
2021/03/08 09:45:30;;;;;;;13.73;8.67;;;5.30;45.70;;;;;;5000870;28;20446;-66
2021/03/08 09:48:01;;;;;;;11.90;7.80;;;5.50;45.60;;;;;;5000771;28;20995;-64
2021/03/08 09:50:33;;;;;;;14.33;8.67;;;5.60;45.10;;;;;;5003961;28;20469;-64
2021/03/08 09:52:59;;;;;;;14.93;8.20;;;5.70;43.90;;;;;;5002616;28;20444;-65
2021/03/08 09:55:28;;;;;;;11.57;7.93;;;5.80;43.40;;;;;;4997870;28;20505;-65
2021/03/08 09:57:54;;;;;;;16.20;9.17;;;5.80;43.00;;;;;;5002977;28;21187;-65
2021/03/08 10:00:28;;;;;;;16.33;9.00;;;5.70;42.40;;;;;;5002647;28;20468;-65
2021/03/08 10:03:02;;;;;;;14.00;8.03;;;5.80;42.90;;;;;;4996044;28;21371;-65
2021/03/08 10:05:37;;;;;;;14.57;8.30;;;5.90;42.90;;;;;;4999575;28;20493;-62
2021/03/08 10:08:02;;;;;;;15.37;9.13;;;6.10;43.00;;;;;;4993807;28;20534;-64
2021/03/08 10:10:28;;;;;;;14.53;8.77;;;6.40;43.20;;;;;;5001000;28;20522;-63
2021/03/08 10:12:58;;;;;;;14.57;8.90;;;6.50;42.20;;;;;;4994575;28;20193;-62
2021/03/08 10:15:24;;;;;;;18.00;8.53;;;6.70;41.80;;;;;;4995761;28;20526;-63
2021/03/08 10:18:00;;;;;;;13.27;7.83;;;6.80;41.50;;;;;;4993990;28;20876;-63
2021/03/08 10:20:29;;;;;;;11.67;8.30;;;7.00;41.50;;;;;;4995805;28;21177;-62
2021/03/08 10:22:55;;;;;;;13.03;7.87;;;7.10;41.10;;;;;;5002495;28;20450;-63
2021/03/08 10:25:34;;;;;;;15.77;8.87;;;7.20;39.50;;;;;;5004209;28;21328;-63
2021/03/08 10:28:00;;;;;;;15.00;8.33;;;7.20;38.70;;;;;;4998135;28;20501;-63
2021/03/08 10:30:31;;;;;;;15.57;8.50;;;7.30;39.60;;;;;;5006478;28;20463;-63
2021/03/08 10:33:02;;;;;;;12.60;8.10;;;7.40;37.60;;;;;;5004250;28;20444;-64
2021/03/08 10:35:40;;;;;;;12.50;8.03;;;7.40;37.60;;;;;;5005991;28;20442;-64
2021/03/08 10:40:55;;;;;;;11.13;7.43;;;7.70;38.70;;;;;;5019716;28;20982;-58
2021/03/08 10:43:24;;;;;;;13.90;8.00;;;7.80;38.10;;;;;;5016480;28;20430;-57
2021/03/08 10:45:52;;;;;;;11.10;7.77;;;7.90;38.00;;;;;;5027564;28;20484;-57
2021/03/08 10:48:19;;;;;;;11.40;7.40;;;8.00;38.20;;;;;;5023233;28;20441;-59
2021/03/08 10:50:47;;;;;;;13.03;7.97;;;8.10;37.20;;;;;;5005553;28;20466;-60
2021/03/08 10:53:14;;;;;;;12.60;8.23;;;8.20;37.40;;;;;;5011762;28;20950;-58
2021/03/08 10:55:40;;;;;;;13.43;8.50;;;8.40;37.90;;;;;;5001298;28;20440;-57
2021/03/08 10:58:07;;;;;;;11.80;8.20;;;8.60;36.80;;;;;;5002337;28;20580;-59
2021/03/08 11:00:36;;;;;;;14.93;8.67;;;8.60;34.80;;;;;;5004316;28;20537;-59
2021/03/08 11:03:02;;;;;;;13.10;8.10;;;8.50;34.80;;;;;;5001830;28;20820;-59
2021/03/08 11:05:29;;;;;;;13.47;9.00;;;8.60;36.40;;;;;;4998892;28;21197;-59
2021/03/08 11:07:58;;;;;;;11.93;8.10;;;8.80;36.40;;;;;;5005032;28;20927;-59
2021/03/08 11:10:37;;;;;;;14.33;8.37;;;8.90;35.70;;;;;;5007480;28;20467;-59
2021/03/08 11:13:07;;;;;;;17.50;8.93;;;9.10;35.70;;;;;;5007969;28;20507;-59
2021/03/08 11:15:35;;;;;;;12.80;7.70;;;9.30;36.00;;;;;;5007805;28;20415;-57
2021/03/08 11:18:02;;;;;;;11.10;7.60;;;9.40;35.00;;;;;;5009118;28;20429;-60
2021/03/08 11:20:30;;;;;;;14.20;8.73;;;9.50;34.50;;;;;;5010484;28;20463;-58
2021/03/08 11:23:06;;;;;;;11.10;7.53;;;9.70;34.90;;;;;;5011678;28;20434;-60
2021/03/08 11:25:39;;;;;;;14.00;8.93;;;10.00;34.30;;;;;;5021204;28;20973;-56
2021/03/08 11:28:16;;;;;;;11.00;7.77;;;10.20;33.90;;;;;;5005132;28;20439;-58
2021/03/08 11:30:49;;;;;;;12.90;8.40;;;10.40;33.90;;;;;;5010848;28;20812;-61
2021/03/08 11:33:15;;;;;;;11.67;7.37;;;10.70;32.50;;;;;;5006095;28;20415;-57
2021/03/08 11:35:42;;;;;;;11.23;8.30;;;11.00;32.50;;;;;;5003341;28;20501;-59
2021/03/08 11:38:13;;;;;;;16.50;8.23;;;11.30;31.90;;;;;;5002774;28;20438;-58
2021/03/08 11:40:44;;;;;;;12.70;7.63;;;11.60;31.00;;;;;;5002514;28;20447;-59
2021/03/08 11:43:10;;;;;;;18.40;9.70;;;12.00;30.40;;;;;;5002587;28;20477;-60
2021/03/08 11:45:36;;;;;;;10.80;7.37;;;12.30;29.30;;;;;;4996229;28;20825;-60
2021/03/08 11:48:02;;;;;;;16.00;8.67;;;12.60;29.20;;;;;;4998230;28;20443;-57
2021/03/08 11:50:31;;;;;;;10.73;7.97;;;13.00;29.70;;;;;;5003608;28;20206;-60
2021/03/08 11:52:58;;;;;;;12.80;8.40;;;13.50;29.00;;;;;;5001729;28;20542;-56
2021/03/08 11:55:24;;;;;;;11.37;8.70;;;13.60;26.50;;;;;;5007477;28;20478;-58
2021/03/08 11:57:50;;;;;;;11.87;8.50;;;13.70;27.10;;;;;;5000435;28;21072;-56
2021/03/08 12:00:26;;;;;;;9.47;7.50;;;14.00;27.70;;;;;;4997275;28;20255;-58
2021/03/08 12:02:52;;;;;;;12.83;8.67;;;14.40;27.40;;;;;;4996117;28;20482;-59
2021/03/08 12:05:19;;;;;;;11.83;8.60;;;14.50;27.20;;;;;;5001110;28;20435;-58
2021/03/08 12:07:44;;;;;;;15.20;8.70;;;14.70;27.70;;;;;;5001611;28;20982;-59
2021/03/08 12:10:13;;;;;;;15.50;9.00;;;14.80;27.70;;;;;;5000297;28;20448;-59
2021/03/08 12:12:38;;;;;;;13.47;9.57;;;14.80;27.10;;;;;;5006073;28;20263;-60
2021/03/08 12:15:06;;;;;;;12.77;8.30;;;14.80;27.20;;;;;;5004331;28;20542;-56
2021/03/08 12:17:32;;;;;;;11.33;7.87;;;14.80;27.00;;;;;;5004214;28;20211;-59
2021/03/08 12:19:59;;;;;;;11.67;8.23;;;14.70;26.80;;;;;;5006810;28;21029;-60
2021/03/08 12:22:25;;;;;;;15.60;9.20;;;14.80;26.80;;;;;;5008000;28;20684;-61
2021/03/08 12:24:50;;;;;;;11.40;8.90;;;14.70;26.60;;;;;;4997040;28;20531;-58
2021/03/08 12:27:16;;;;;;;11.50;8.20;;;14.50;26.70;;;;;;5003337;28;20180;-59
2021/03/08 12:29:42;;;;;;;10.57;8.20;;;14.50;26.20;;;;;;5006062;28;20250;-57
2021/03/08 12:32:08;;;;;;;11.80;8.30;;;14.40;26.30;;;;;;5008077;28;20439;-57
2021/03/08 12:34:35;;;;;;;16.70;9.60;;;14.60;26.60;;;;;;5009590;28;20267;-56
2021/03/08 12:37:01;;;;;;;14.77;10.60;;;14.70;26.80;;;;;;5002714;28;20947;-57
2021/03/08 12:39:27;;;;;;;10.87;7.20;;;14.80;26.40;;;;;;5011274;28;21072;-56
2021/03/08 12:41:54;;;;;;;12.90;8.47;;;14.60;24.90;;;;;;5011595;28;20446;-57
2021/03/08 12:44:20;;;;;;;11.20;7.70;;;14.50;25.30;;;;;;5005507;28;20946;-58
2021/03/08 12:46:46;;;;;;;12.80;8.90;;;14.40;26.40;;;;;;5005493;28;20439;-57
2021/03/08 12:49:13;;;;;;;11.13;8.50;;;14.40;26.40;;;;;;5004437;28;20210;-59
2021/03/08 12:51:39;;;;;;;13.40;8.23;;;14.40;26.70;;;;;;5006986;28;20180;-57
2021/03/08 12:54:04;;;;;;;12.87;8.20;;;14.40;26.00;;;;;;5002325;28;20441;-56